createdAt,value
2019-02-24T00:00:28.676Z,0.87
2019-02-24T00:01:28.690Z,0.92
2019-02-24T00:02:28.648Z,0.81
2019-02-24T00:03:28.647Z,0.94
2019-02-24T00:04:28.627Z,0.92
2019-02-24T00:05:28.617Z,0.92
2019-02-24T00:06:28.606Z,0.94
2019-02-24T00:07:28.629Z,0.86
2019-02-24T00:08:28.599Z,0.86
2019-02-24T00:09:28.569Z,0.86
2019-02-24T00:10:28.564Z,0.91
2019-02-24T00:11:28.546Z,0.88
2019-02-24T00:12:28.605Z,0.86
2019-02-24T00:13:28.532Z,0.88
2019-02-24T00:14:28.526Z,0.92
2019-02-24T00:15:28.506Z,0.91
2019-02-24T00:16:28.499Z,0.86
2019-02-24T00:17:28.486Z,0.84
2019-02-24T00:18:28.518Z,0.96
2019-02-24T00:19:28.466Z,1.02
2019-02-24T00:20:28.458Z,0.91
2019-02-24T00:21:28.439Z,0.96
2019-02-24T00:22:28.433Z,0.88
2019-02-24T00:23:28.431Z,0.98
2019-02-24T00:24:30.136Z,0.98
2019-02-24T00:25:28.422Z,0.91
2019-02-24T00:26:28.400Z,1.04
2019-02-24T00:27:28.381Z,1.02
2019-02-24T00:28:28.365Z,1.10
2019-02-24T00:29:28.434Z,1.08
2019-02-24T00:30:28.378Z,1.06
2019-02-24T00:31:28.359Z,1.02
2019-02-24T00:32:28.333Z,1.01
2019-02-24T00:33:28.304Z,1.01
2019-02-24T00:34:28.306Z,1.01
2019-02-24T00:35:28.317Z,0.96
2019-02-24T00:36:28.304Z,0.96
2019-02-24T00:37:28.301Z,0.95
2019-02-24T00:38:28.256Z,1.02
2019-02-24T00:39:28.248Z,1.02
2019-02-24T00:40:28.289Z,1.06
2019-02-24T00:41:28.232Z,0.99
2019-02-24T00:42:28.247Z,0.94
2019-02-24T00:43:28.257Z,0.91
2019-02-24T00:44:28.195Z,0.96
2019-02-24T00:45:28.183Z,0.91
2019-02-24T00:46:28.173Z,0.86
2019-02-24T00:47:28.184Z,0.88
2019-02-24T00:48:28.181Z,0.83
2019-02-24T00:49:28.180Z,0.86
2019-02-24T00:50:28.192Z,0.80
2019-02-24T00:51:28.111Z,0.84
2019-02-24T00:52:28.107Z,0.80
2019-02-24T00:53:28.120Z,0.87
2019-02-24T00:54:28.122Z,0.81
2019-02-24T00:55:28.086Z,0.77
2019-02-24T00:56:28.053Z,0.83
2019-02-24T00:57:28.054Z,0.78
2019-02-24T00:58:28.040Z,0.81
2019-02-24T00:59:28.035Z,0.84
2019-02-24T01:00:28.080Z,0.84
2019-02-24T01:01:28.016Z,0.86
2019-02-24T01:02:27.989Z,0.94
2019-02-24T01:03:27.989Z,0.94
2019-02-24T01:04:27.988Z,0.88
2019-02-24T01:05:27.984Z,0.92
2019-02-24T01:06:27.999Z,0.88
2019-02-24T01:07:27.948Z,0.91
2019-02-24T01:08:27.927Z,0.91
2019-02-24T01:09:27.918Z,0.92
2019-02-24T01:10:27.913Z,0.91
2019-02-24T01:11:27.926Z,0.87
2019-02-24T01:12:27.955Z,0.92
2019-02-24T01:13:27.872Z,0.96
2019-02-24T01:14:27.869Z,0.92
2019-02-24T01:15:27.860Z,0.84
2019-02-24T01:16:27.859Z,0.88
2019-02-24T01:17:27.832Z,0.84
2019-02-24T01:18:27.924Z,0.80
2019-02-24T01:19:27.821Z,0.81
2019-02-24T01:20:27.800Z,0.81
2019-02-24T01:21:27.804Z,0.77
2019-02-24T01:22:27.797Z,0.66
2019-02-24T01:23:27.768Z,0.65
2019-02-24T01:24:27.826Z,0.74
2019-02-24T01:25:27.831Z,0.73
2019-02-24T01:26:27.729Z,0.68
2019-02-24T01:27:27.733Z,0.65
2019-02-24T01:28:27.721Z,0.58
2019-02-24T01:29:27.710Z,0.50
2019-02-24T01:30:27.691Z,0.59
2019-02-24T01:31:27.760Z,0.49
2019-02-24T01:32:27.665Z,0.43
2019-02-24T01:33:27.741Z,0.52
2019-02-24T01:34:27.676Z,0.49
2019-02-24T01:35:27.635Z,0.49
2019-02-24T01:36:27.616Z,0.52
2019-02-24T01:37:27.692Z,0.43
2019-02-24T01:38:27.604Z,0.56
2019-02-24T01:39:27.606Z,0.52
2019-02-24T01:40:27.582Z,0.56
2019-02-24T01:41:27.682Z,0.58
2019-02-24T01:42:27.566Z,0.47
2019-02-24T01:43:27.580Z,0.66
2019-02-24T01:44:27.539Z,0.59
2019-02-24T01:45:27.531Z,0.60
2019-02-24T01:46:27.530Z,0.58
2019-02-24T01:47:27.519Z,0.55
2019-02-24T01:48:27.495Z,0.50
2019-02-24T01:49:27.523Z,0.44
2019-02-24T01:50:27.539Z,0.46
2019-02-24T01:51:27.493Z,0.47
2019-02-24T01:52:27.446Z,0.46
2019-02-24T01:53:27.443Z,0.50
2019-02-24T01:54:27.430Z,0.37
2019-02-24T01:55:27.415Z,0.34
2019-02-24T01:56:27.456Z,0.39
2019-02-24T01:57:27.403Z,0.34
2019-02-24T01:58:34.945Z,0.28
2019-02-24T01:59:28.386Z,0.25
2019-02-24T02:00:27.396Z,0.18
2019-02-24T02:01:27.355Z,0.19
2019-02-24T02:02:27.359Z,0.15
2019-02-24T02:03:27.343Z,0.10
2019-02-24T02:04:27.359Z,0.08
2019-02-24T02:05:27.317Z,0.01
2019-02-24T02:06:27.343Z,0.00
2019-02-24T02:07:27.402Z,-0.07
2019-02-24T02:08:27.292Z,-0.02
2019-02-24T02:09:27.274Z,0.03
2019-02-24T02:10:27.267Z,0.18
2019-02-24T02:11:27.241Z,0.12
2019-02-24T02:12:27.237Z,0.10
2019-02-24T02:13:27.269Z,0.05
2019-02-24T02:14:27.217Z,0.12
2019-02-24T02:15:27.224Z,0.08
2019-02-24T02:16:27.189Z,0.08
2019-02-24T02:17:27.209Z,0.05
2019-02-24T02:18:27.212Z,0.01
2019-02-24T02:19:27.205Z,0.03
2019-02-24T02:20:27.184Z,0.00
2019-02-24T02:21:27.161Z,0.03
2019-02-24T02:22:27.131Z,0.00
2019-02-24T02:23:27.125Z,0.07
2019-02-24T02:24:27.183Z,0.07
2019-02-24T02:25:27.091Z,0.01
2019-02-24T02:26:27.104Z,-0.07
2019-02-24T02:27:27.062Z,-0.08
2019-02-24T02:28:27.061Z,-0.03
2019-02-24T02:29:27.046Z,0.01
2019-02-24T02:30:27.108Z,0.00
2019-02-24T02:31:27.025Z,-0.03
2019-02-24T02:32:27.018Z,-0.02
2019-02-24T02:33:27.013Z,0.00
2019-02-24T02:34:27.059Z,-0.07
2019-02-24T02:35:27.022Z,0.01
2019-02-24T02:36:26.981Z,-0.07
2019-02-24T02:37:27.034Z,-0.08
2019-02-24T02:38:26.968Z,-0.13
2019-02-24T02:39:26.936Z,0.01
2019-02-24T02:40:26.939Z,-0.10
2019-02-24T02:41:27.055Z,-0.15
2019-02-24T02:42:26.904Z,-0.06
2019-02-24T02:43:26.910Z,-0.06
2019-02-24T02:44:26.908Z,-0.06
2019-02-24T02:45:26.913Z,-0.03
2019-02-24T02:46:26.864Z,-0.06
2019-02-24T02:47:26.887Z,-0.07
2019-02-24T02:48:26.852Z,-0.10
2019-02-24T02:49:26.846Z,-0.06
2019-02-24T02:50:26.830Z,-0.10
2019-02-24T02:51:26.817Z,-0.06
2019-02-24T02:52:26.830Z,-0.07
2019-02-24T02:53:26.823Z,-0.13
2019-02-24T02:54:26.784Z,-0.14
2019-02-24T02:55:29.433Z,-0.02
2019-02-24T02:56:26.774Z,-0.06
2019-02-24T02:57:26.804Z,-0.03
2019-02-24T02:58:26.723Z,-0.11
2019-02-24T02:59:26.718Z,-0.08
2019-02-24T03:00:26.716Z,-0.06
2019-02-24T03:01:26.716Z,-0.11
2019-02-24T03:02:26.729Z,-0.10
2019-02-24T03:03:26.677Z,-0.11
2019-02-24T03:04:26.665Z,0.01
2019-02-24T03:05:26.652Z,-0.06
2019-02-24T03:06:26.654Z,0.00
2019-02-24T03:07:26.756Z,-0.07
2019-02-24T03:08:26.675Z,-0.06
2019-02-24T03:09:26.634Z,0.00
2019-02-24T03:10:26.595Z,0.00
2019-02-24T03:11:26.591Z,-0.08
2019-02-24T03:12:26.581Z,-0.06
2019-02-24T03:13:26.579Z,0.03
2019-02-24T03:14:26.606Z,0.00
2019-02-24T03:15:26.547Z,-0.07
2019-02-24T03:16:26.525Z,-0.07
2019-02-24T03:17:26.516Z,-0.20
2019-02-24T03:18:26.586Z,-0.15
2019-02-24T03:19:26.513Z,-0.18
2019-02-24T03:20:26.533Z,-0.13
2019-02-24T03:21:26.537Z,-0.17
2019-02-24T03:22:26.463Z,-0.13
2019-02-24T03:23:26.466Z,-0.07
2019-02-24T03:24:26.494Z,-0.06
2019-02-24T03:25:26.449Z,-0.02
2019-02-24T03:26:26.474Z,0.01
2019-02-24T03:27:26.448Z,-0.02
2019-02-24T03:28:26.406Z,-0.08
2019-02-24T03:29:26.392Z,0.00
2019-02-24T03:30:26.386Z,0.04
2019-02-24T03:31:26.376Z,0.01
2019-02-24T03:32:26.408Z,0.08
2019-02-24T03:33:26.345Z,0.11
2019-02-24T03:34:26.337Z,0.11
2019-02-24T03:35:26.352Z,0.10
2019-02-24T03:36:26.335Z,0.11
2019-02-24T03:37:26.311Z,0.08
2019-02-24T03:38:26.353Z,0.05
2019-02-24T03:39:26.276Z,0.04
2019-02-24T03:40:26.281Z,0.01
2019-02-24T03:41:26.263Z,-0.06
2019-02-24T03:42:26.263Z,0.03
2019-02-24T03:43:26.240Z,0.01
2019-02-24T03:44:26.277Z,0.04
2019-02-24T03:45:26.220Z,0.05
2019-02-24T03:46:26.241Z,0.04
2019-02-24T03:47:26.196Z,0.01
2019-02-24T03:48:26.180Z,0.00
2019-02-24T03:49:26.235Z,0.03
2019-02-24T03:50:26.152Z,0.01
2019-02-24T03:51:26.157Z,0.01
2019-02-24T03:52:26.228Z,0.04
2019-02-24T03:53:26.151Z,0.05
2019-02-24T03:54:26.117Z,0.05
2019-02-24T03:55:26.117Z,0.03
2019-02-24T03:56:26.097Z,0.04
2019-02-24T03:57:26.084Z,0.08
2019-02-24T03:58:26.110Z,0.10
2019-02-24T03:59:26.067Z,0.15
2019-02-24T04:00:26.086Z,0.12
2019-02-24T04:01:26.039Z,0.21
2019-02-24T04:02:26.037Z,0.19
2019-02-24T04:03:26.022Z,0.28
2019-02-24T04:04:26.050Z,0.29
2019-02-24T04:05:25.991Z,0.29
2019-02-24T04:06:25.981Z,0.36
2019-02-24T04:07:25.972Z,0.26
2019-02-24T04:08:25.967Z,0.31
2019-02-24T04:09:25.949Z,0.31
2019-02-24T04:10:25.976Z,0.32
2019-02-24T04:11:25.942Z,0.40
2019-02-24T04:12:26.004Z,0.47
2019-02-24T04:13:25.896Z,0.41
2019-02-24T04:14:25.891Z,0.46
2019-02-24T04:15:25.894Z,0.49
2019-02-24T04:16:25.892Z,0.46
2019-02-24T04:17:25.863Z,0.43
2019-02-24T04:18:25.912Z,0.41
2019-02-24T04:19:25.846Z,0.49
2019-02-24T04:20:25.826Z,0.47
2019-02-24T04:21:25.832Z,0.39
2019-02-24T04:22:25.814Z,0.29
2019-02-24T04:23:25.846Z,0.29
2019-02-24T04:24:25.784Z,0.34
2019-02-24T04:25:25.894Z,0.31
2019-02-24T04:26:25.775Z,0.39
2019-02-24T04:27:25.767Z,0.36
2019-02-24T04:28:25.775Z,0.37
2019-02-24T04:29:25.787Z,0.34
2019-02-24T04:30:25.733Z,0.39
2019-02-24T04:31:25.716Z,0.36
2019-02-24T04:32:25.792Z,0.39
2019-02-24T04:33:25.714Z,0.31
2019-02-24T04:34:25.692Z,0.28
2019-02-24T04:35:25.733Z,0.32
2019-02-24T04:36:25.669Z,0.37
2019-02-24T04:37:25.638Z,0.37
2019-02-24T04:38:25.641Z,0.40
2019-02-24T04:39:25.683Z,0.37
2019-02-24T04:40:25.603Z,0.40
2019-02-24T04:41:25.656Z,0.32
2019-02-24T04:42:25.619Z,0.40
2019-02-24T04:43:25.589Z,0.29
2019-02-24T04:44:25.566Z,0.44
2019-02-24T04:45:25.572Z,0.41
2019-02-24T04:46:25.614Z,0.40
2019-02-24T04:47:25.538Z,0.40
2019-02-24T04:48:25.524Z,0.43
2019-02-24T04:49:25.524Z,0.40
2019-02-24T04:50:25.507Z,0.50
2019-02-24T04:51:25.598Z,0.50
2019-02-24T04:52:25.509Z,0.47
2019-02-24T04:53:25.467Z,0.39
2019-02-24T04:54:25.475Z,0.32
2019-02-24T04:55:25.522Z,0.37
2019-02-24T04:56:25.439Z,0.29
2019-02-24T04:57:25.434Z,0.37
2019-02-24T04:58:25.423Z,0.39
2019-02-24T04:59:34.574Z,0.36
2019-02-24T05:00:26.423Z,0.32
2019-02-24T05:01:25.381Z,0.25
2019-02-24T05:02:25.385Z,0.36
2019-02-24T05:03:25.363Z,0.32
2019-02-24T05:04:25.405Z,0.22
2019-02-24T05:05:25.331Z,0.21
2019-02-24T05:06:25.339Z,0.21
2019-02-24T05:07:25.317Z,0.21
2019-02-24T05:08:25.323Z,0.22
2019-02-24T05:09:25.339Z,0.23
2019-02-24T05:10:25.284Z,0.21
2019-02-24T05:11:25.293Z,0.12
2019-02-24T05:12:25.271Z,0.10
2019-02-24T05:13:25.255Z,0.12
2019-02-24T05:14:25.285Z,0.12
2019-02-24T05:15:25.306Z,0.12
2019-02-24T05:16:25.230Z,0.08
2019-02-24T05:17:25.945Z,0.10
2019-02-24T05:18:25.196Z,0.18
2019-02-24T05:19:25.188Z,0.12
2019-02-24T05:20:25.177Z,0.01
2019-02-24T05:21:25.212Z,0.18
2019-02-24T05:22:25.161Z,0.10
2019-02-24T05:23:25.131Z,0.08
2019-02-24T05:24:25.126Z,0.08
2019-02-24T05:25:25.219Z,0.05
2019-02-24T05:26:25.174Z,0.19
2019-02-24T05:27:25.091Z,0.18
2019-02-24T05:28:25.144Z,0.18
2019-02-24T05:29:25.075Z,0.23
2019-02-24T05:30:25.072Z,0.16
2019-02-24T05:31:25.054Z,0.18
2019-02-24T05:32:25.050Z,0.10
2019-02-24T05:33:25.046Z,0.08
2019-02-24T05:34:25.077Z,0.08
2019-02-24T05:35:25.050Z,0.11
2019-02-24T05:36:24.991Z,0.10
2019-02-24T05:37:24.994Z,0.05
2019-02-24T05:38:24.983Z,0.11
2019-02-24T05:39:25.099Z,0.16
2019-02-24T05:40:25.010Z,0.10
2019-02-24T05:41:24.943Z,0.07
2019-02-24T05:42:24.947Z,0.05
2019-02-24T05:43:24.926Z,0.04
2019-02-24T05:44:24.939Z,0.03
2019-02-24T05:45:24.924Z,0.08
2019-02-24T05:46:24.954Z,0.04
2019-02-24T05:47:24.880Z,0.03
2019-02-24T05:48:24.869Z,0.01
2019-02-24T05:49:24.865Z,0.03
2019-02-24T05:50:24.889Z,0.01
2019-02-24T05:51:24.841Z,-0.08
2019-02-24T05:52:24.863Z,-0.07
2019-02-24T05:53:24.835Z,0.03
2019-02-24T05:54:24.794Z,0.01
2019-02-24T05:55:24.817Z,0.01
2019-02-24T05:56:24.797Z,-0.06
2019-02-24T05:57:24.771Z,0.01
2019-02-24T05:58:24.804Z,-0.03
2019-02-24T05:59:24.749Z,-0.06
2019-02-24T06:00:24.733Z,-0.02
2019-02-24T06:01:24.728Z,0.05
2019-02-24T06:02:24.716Z,-0.08
2019-02-24T06:03:24.760Z,-0.03
2019-02-24T06:04:24.683Z,0.04
2019-02-24T06:05:24.675Z,0.07
2019-02-24T06:06:24.670Z,0.05
2019-02-24T06:07:24.675Z,0.15
2019-02-24T06:08:24.694Z,0.12
2019-02-24T06:09:24.661Z,0.21
2019-02-24T06:10:24.622Z,0.32
2019-02-24T06:11:24.606Z,0.21
2019-02-24T06:12:24.612Z,0.29
2019-02-24T06:13:24.605Z,0.36
2019-02-24T06:14:24.645Z,0.37
2019-02-24T06:15:24.570Z,0.34
2019-02-24T06:16:24.583Z,0.34
2019-02-24T06:17:24.546Z,0.44
2019-02-24T06:18:24.542Z,0.46
2019-02-24T06:19:24.549Z,0.41
2019-02-24T06:20:24.560Z,0.37
2019-02-24T06:21:24.495Z,0.29
2019-02-24T06:22:24.509Z,0.37
2019-02-24T06:23:24.498Z,0.39
2019-02-24T06:24:24.482Z,0.39
2019-02-24T06:25:24.497Z,0.40
2019-02-24T06:26:24.518Z,0.34
2019-02-24T06:27:24.440Z,0.28
2019-02-24T06:28:24.476Z,0.37
2019-02-24T06:29:24.416Z,0.34
2019-02-24T06:30:24.424Z,0.34
2019-02-24T06:31:24.407Z,0.40
2019-02-24T06:32:24.386Z,0.43
2019-02-24T06:33:24.379Z,0.47
2019-02-24T06:34:24.398Z,0.46
2019-02-24T06:35:24.392Z,0.58
2019-02-24T06:36:24.355Z,0.50
2019-02-24T06:37:24.339Z,0.59
2019-02-24T06:38:24.313Z,0.66
2019-02-24T06:39:24.317Z,0.60
2019-02-24T06:40:24.287Z,0.59
2019-02-24T06:41:24.333Z,0.66
2019-02-24T06:42:24.274Z,0.58
2019-02-24T06:43:24.279Z,0.58
2019-02-24T06:44:24.244Z,0.62
2019-02-24T06:45:24.295Z,0.55
2019-02-24T06:46:24.229Z,0.49
2019-02-24T06:47:24.239Z,0.47
2019-02-24T06:48:24.227Z,0.49
2019-02-24T06:49:24.192Z,0.62
2019-02-24T06:50:24.185Z,0.63
2019-02-24T06:51:24.215Z,0.74
2019-02-24T06:52:24.174Z,0.81
2019-02-24T06:53:24.231Z,0.80
2019-02-24T06:54:24.159Z,0.94
2019-02-24T06:55:24.130Z,0.87
2019-02-24T06:56:24.128Z,1.02
2019-02-24T06:57:24.108Z,0.96
2019-02-24T06:58:24.157Z,1.12
2019-02-24T06:59:24.108Z,1.04
2019-02-24T07:00:24.072Z,1.06
2019-02-24T07:01:24.069Z,1.17
2019-02-24T07:02:24.070Z,1.06
2019-02-24T07:03:24.082Z,1.17
2019-02-24T07:04:24.072Z,1.16
2019-02-24T07:05:24.033Z,1.14
2019-02-24T07:06:24.008Z,1.13
2019-02-24T07:07:23.992Z,1.05
2019-02-24T07:08:24.002Z,1.17
2019-02-24T07:09:23.989Z,1.08
2019-02-24T07:10:24.011Z,1.17
2019-02-24T07:11:23.970Z,1.28
2019-02-24T07:12:23.944Z,1.28
2019-02-24T07:13:23.931Z,1.28
2019-02-24T07:14:23.925Z,1.23
2019-02-24T07:15:24.001Z,1.19
2019-02-24T07:16:23.992Z,1.20
2019-02-24T07:17:23.896Z,1.17
2019-02-24T07:18:23.886Z,1.17
2019-02-24T07:19:23.870Z,1.22
2019-02-24T07:20:23.874Z,1.32
2019-02-24T07:21:23.878Z,1.32
2019-02-24T07:22:23.954Z,1.34
2019-02-24T07:23:23.819Z,1.30
2019-02-24T07:24:23.822Z,1.38
2019-02-24T07:25:23.835Z,1.37
2019-02-24T07:26:23.805Z,1.45
2019-02-24T07:27:23.783Z,1.45
2019-02-24T07:28:23.894Z,1.59
2019-02-24T07:29:28.656Z,1.73
2019-02-24T07:30:23.935Z,1.78
2019-02-24T07:31:23.745Z,1.84
2019-02-24T07:32:23.753Z,2.08
2019-02-24T07:33:23.769Z,2.18
2019-02-24T07:34:23.771Z,2.00
2019-02-24T07:35:23.737Z,1.94
2019-02-24T07:36:23.686Z,1.80
2019-02-24T07:37:23.679Z,1.68
2019-02-24T07:38:23.671Z,1.71
2019-02-24T07:39:23.675Z,1.67
2019-02-24T07:40:23.710Z,1.78
2019-02-24T07:41:23.631Z,1.68
2019-02-24T07:42:23.623Z,1.68
2019-02-24T07:43:23.624Z,1.68
2019-02-24T07:44:23.602Z,1.68
2019-02-24T07:45:23.599Z,1.74
2019-02-24T07:46:23.621Z,1.70
2019-02-24T07:47:23.617Z,1.77
2019-02-24T07:48:23.591Z,1.97
2019-02-24T07:49:23.540Z,2.11
2019-02-24T07:50:23.542Z,2.18
2019-02-24T07:51:23.534Z,2.22
2019-02-24T07:52:23.512Z,2.26
2019-02-24T07:53:23.541Z,2.25
2019-02-24T07:54:23.519Z,2.29
2019-02-24T07:55:23.513Z,2.26
2019-02-24T07:56:38.458Z,2.42
2019-02-24T07:57:23.474Z,2.50
2019-02-24T07:58:23.505Z,2.60
2019-02-24T07:59:23.517Z,2.35
2019-02-24T08:00:31.746Z,2.33
2019-02-24T08:01:24.424Z,2.39
2019-02-24T08:02:23.403Z,2.35
2019-02-24T08:03:23.512Z,2.26
2019-02-24T08:04:23.507Z,2.22
2019-02-24T08:05:23.384Z,2.17
2019-02-24T08:06:23.359Z,2.24
2019-02-24T08:07:23.360Z,2.43
2019-02-24T08:08:23.460Z,2.57
2019-02-24T08:09:23.398Z,2.62
2019-02-24T08:10:23.345Z,2.77
2019-02-24T08:11:23.341Z,2.77
2019-02-24T08:12:23.297Z,2.64
2019-02-24T08:13:23.299Z,2.69
2019-02-24T08:14:23.317Z,2.75
2019-02-24T08:15:23.377Z,2.93
2019-02-24T08:16:23.253Z,2.85
2019-02-24T08:17:23.239Z,2.87
2019-02-24T08:18:23.233Z,2.82
2019-02-24T08:19:23.226Z,2.86
2019-02-24T08:20:23.262Z,2.75
2019-02-24T08:21:23.203Z,2.56
2019-02-24T08:22:23.192Z,2.65
2019-02-24T08:23:23.194Z,2.61
2019-02-24T08:24:23.190Z,2.68
2019-02-24T08:25:23.159Z,2.74
2019-02-24T08:26:23.197Z,2.85
2019-02-24T08:27:23.148Z,2.85
2019-02-24T08:28:23.126Z,2.87
2019-02-24T08:29:23.105Z,3.01
2019-02-24T08:30:23.098Z,3.03
2019-02-24T08:31:23.094Z,3.13
2019-02-24T08:32:23.129Z,3.29
2019-02-24T08:33:23.090Z,3.47
2019-02-24T08:34:23.060Z,3.62
2019-02-24T08:35:23.056Z,3.74
2019-02-24T08:36:23.045Z,3.87
2019-02-24T08:37:23.057Z,3.92
2019-02-24T08:38:23.061Z,4.04
2019-02-24T08:39:23.017Z,4.26
2019-02-24T08:40:23.004Z,4.38
2019-02-24T08:41:23.043Z,4.59
2019-02-24T08:42:22.971Z,4.78
2019-02-24T08:43:22.964Z,5.28
2019-02-24T08:44:22.963Z,6.08
2019-02-24T08:45:22.968Z,6.05
2019-02-24T08:46:22.935Z,7.47
2019-02-24T08:47:22.998Z,7.80
2019-02-24T08:48:22.991Z,10.46
2019-02-24T08:49:22.891Z,12.46
2019-02-24T08:50:22.900Z,14.55
2019-02-24T08:51:23.470Z,16.36
2019-02-24T08:52:22.864Z,17.51
2019-02-24T08:53:22.858Z,17.41
2019-02-24T08:54:22.889Z,18.05
2019-02-24T08:55:22.836Z,18.95
2019-02-24T08:56:22.845Z,19.14
2019-02-24T08:57:22.818Z,18.47
2019-02-24T08:58:22.801Z,18.35
2019-02-24T08:59:22.804Z,18.49
2019-02-24T09:00:22.857Z,18.58
2019-02-24T09:01:22.792Z,19.26
2019-02-24T09:02:22.765Z,19.16
2019-02-24T09:03:22.788Z,18.89
2019-02-24T09:04:22.756Z,18.50
2019-02-24T09:05:22.716Z,17.90
2019-02-24T09:06:22.705Z,17.89
2019-02-24T09:07:22.731Z,18.49
2019-02-24T09:08:22.689Z,18.23
2019-02-24T09:09:22.721Z,18.25
2019-02-24T09:10:22.752Z,18.35
2019-02-24T09:11:22.658Z,17.95
2019-02-24T09:12:22.642Z,17.78
2019-02-24T09:13:22.648Z,17.41
2019-02-24T09:14:22.627Z,17.72
2019-02-24T09:15:22.607Z,18.40
2019-02-24T09:16:22.686Z,19.45
2019-02-24T09:17:22.629Z,20.58
2019-02-24T09:18:22.997Z,21.55
2019-02-24T09:19:22.587Z,22.10
2019-02-24T09:20:22.559Z,22.73
2019-02-24T09:21:22.542Z,22.39
2019-02-24T09:22:22.617Z,21.66
2019-02-24T09:23:22.583Z,21.92
2019-02-24T09:24:22.566Z,22.26
2019-02-24T09:25:22.711Z,22.78
2019-02-24T09:26:22.544Z,23.66
2019-02-24T09:27:22.498Z,24.21
2019-02-24T09:28:22.555Z,24.68
2019-02-24T09:29:22.458Z,24.77
2019-02-24T09:30:22.574Z,24.61
2019-02-24T09:31:22.422Z,25.25
2019-02-24T09:32:22.453Z,25.35
2019-02-24T09:33:22.598Z,25.22
2019-02-24T09:34:23.141Z,24.91
2019-02-24T09:35:22.394Z,24.65
2019-02-24T09:36:22.530Z,25.01
2019-02-24T09:37:22.370Z,25.03
2019-02-24T09:38:22.367Z,25.07
2019-02-24T09:39:22.401Z,25.18
2019-02-24T09:40:22.348Z,24.89
2019-02-24T09:41:22.332Z,24.77
2019-02-24T09:42:22.366Z,25.22
2019-02-24T09:43:22.290Z,25.46
2019-02-24T09:44:22.283Z,25.43
2019-02-24T09:45:22.344Z,25.60
2019-02-24T09:46:22.272Z,25.78
2019-02-24T09:47:22.301Z,26.00
2019-02-24T09:48:22.269Z,25.80
2019-02-24T09:49:22.230Z,26.00
2019-02-24T09:50:22.410Z,26.19
2019-02-24T09:51:22.304Z,26.31
2019-02-24T09:52:22.235Z,26.48
2019-02-24T09:53:22.248Z,26.43
2019-02-24T09:54:22.198Z,26.29
2019-02-24T09:55:22.206Z,26.45
2019-02-24T09:56:22.151Z,26.45
2019-02-24T09:57:22.136Z,26.15
2019-02-24T09:58:22.232Z,25.96
2019-02-24T09:59:22.144Z,26.00
2019-02-24T10:00:22.200Z,25.81
2019-02-24T10:01:22.088Z,25.80
2019-02-24T10:02:22.122Z,26.02
2019-02-24T10:03:22.073Z,26.00
2019-02-24T10:04:22.110Z,25.90
2019-02-24T10:05:22.139Z,25.81
2019-02-24T10:06:22.066Z,25.55
2019-02-24T10:07:22.055Z,25.98
2019-02-24T10:08:22.044Z,26.31
2019-02-24T10:09:22.000Z,26.45
2019-02-24T10:10:22.021Z,26.29
2019-02-24T10:11:22.053Z,26.52
2019-02-24T10:12:21.972Z,26.09
2019-02-24T10:13:21.975Z,25.47
2019-02-24T10:14:21.952Z,25.60
2019-02-24T10:15:21.998Z,24.98
2019-02-24T10:16:21.944Z,24.50
2019-02-24T10:17:22.005Z,23.92
2019-02-24T10:18:21.951Z,23.63
2019-02-24T10:19:21.902Z,23.95
2019-02-24T10:20:21.891Z,24.51
2019-02-24T10:21:21.921Z,25.22
2019-02-24T10:22:21.887Z,25.60
2019-02-24T10:23:21.953Z,25.98
2019-02-24T10:24:21.856Z,26.21
2019-02-24T10:25:21.825Z,26.41
2019-02-24T10:26:21.813Z,26.70
2019-02-24T10:27:21.816Z,26.85
2019-02-24T10:28:22.087Z,26.52
2019-02-24T10:29:21.842Z,25.93
2019-02-24T10:30:22.286Z,25.28
2019-02-24T10:31:22.112Z,24.76
2019-02-24T10:32:22.039Z,24.48
2019-02-24T10:33:21.823Z,24.66
2019-02-24T10:34:21.975Z,24.28
2019-02-24T10:35:21.789Z,24.24
2019-02-24T10:36:21.707Z,24.48
2019-02-24T10:37:21.702Z,24.85
2019-02-24T10:38:22.229Z,25.21
2019-02-24T10:39:29.499Z,25.50
2019-02-24T10:40:22.925Z,25.72
2019-02-24T10:41:21.800Z,25.69
2019-02-24T10:42:21.786Z,25.35
2019-02-24T10:43:21.893Z,25.54
2019-02-24T10:44:21.635Z,25.21
2019-02-24T10:45:22.407Z,25.01
2019-02-24T10:46:21.877Z,24.10
2019-02-24T10:47:21.605Z,23.63
2019-02-24T10:48:21.573Z,23.69
2019-02-24T10:49:21.657Z,23.83
2019-02-24T10:50:22.647Z,23.88
2019-02-24T10:51:21.563Z,24.21
2019-02-24T10:52:21.536Z,24.23
2019-02-24T10:53:21.541Z,23.59
2019-02-24T10:54:21.984Z,23.54
2019-02-24T10:55:21.895Z,23.58
2019-02-24T10:56:21.887Z,23.40
2019-02-24T10:57:21.499Z,23.58
2019-02-24T10:58:21.606Z,23.10
2019-02-24T10:59:21.723Z,22.80
2019-02-24T11:00:21.519Z,23.34
2019-02-24T11:01:29.228Z,23.91
2019-02-24T11:02:22.452Z,24.02
2019-02-24T11:03:21.438Z,24.08
2019-02-24T11:04:21.628Z,24.48
2019-02-24T11:05:21.669Z,24.42
2019-02-24T11:06:21.849Z,24.36
2019-02-24T11:07:21.400Z,24.28
2019-02-24T11:08:21.380Z,23.81
2019-02-24T11:09:21.403Z,24.24
2019-02-24T11:10:21.378Z,24.86
2019-02-24T11:11:21.333Z,25.13
2019-02-24T11:12:21.550Z,25.55
2019-02-24T11:13:21.533Z,25.83
2019-02-24T11:14:21.315Z,26.29
2019-02-24T11:15:21.335Z,26.77
2019-02-24T11:16:21.266Z,27.15
2019-02-24T11:17:21.526Z,27.45
2019-02-24T11:18:21.258Z,27.49
2019-02-24T11:19:21.255Z,27.49
2019-02-24T11:20:21.257Z,27.58
2019-02-24T11:21:21.261Z,27.67
2019-02-24T11:22:21.210Z,27.58
2019-02-24T11:23:21.731Z,26.89
2019-02-24T11:24:21.511Z,26.53
2019-02-24T11:25:21.192Z,26.63
2019-02-24T11:26:21.191Z,26.83
2019-02-24T11:27:21.155Z,26.85
2019-02-24T11:28:21.152Z,27.07
2019-02-24T11:29:21.230Z,27.44
2019-02-24T11:30:21.198Z,27.12
2019-02-24T11:31:21.129Z,26.53
2019-02-24T11:32:21.284Z,26.51
2019-02-24T11:33:21.112Z,26.62
2019-02-24T11:34:21.284Z,26.99
2019-02-24T11:35:21.057Z,27.26
2019-02-24T11:36:21.113Z,27.08
2019-02-24T11:37:21.089Z,26.58
2019-02-24T11:38:21.055Z,26.18
2019-02-24T11:39:21.171Z,26.16
2019-02-24T11:40:21.010Z,25.60
2019-02-24T11:41:21.010Z,25.41
2019-02-24T11:42:20.991Z,25.50
2019-02-24T11:43:21.094Z,25.88
2019-02-24T11:44:20.969Z,25.83
2019-02-24T11:45:20.956Z,25.54
2019-02-24T11:46:20.967Z,25.91
2019-02-24T11:47:20.991Z,26.10
2019-02-24T11:48:20.953Z,26.15
2019-02-24T11:49:20.993Z,26.51
2019-02-24T11:50:20.908Z,27.05
2019-02-24T11:51:20.916Z,27.27
2019-02-24T11:52:20.904Z,27.18
2019-02-24T11:53:20.907Z,27.00
2019-02-24T11:54:20.864Z,26.53
2019-02-24T11:55:20.920Z,26.29
2019-02-24T11:56:20.836Z,25.63
2019-02-24T11:57:26.113Z,25.04
2019-02-24T11:58:20.854Z,25.41
2019-02-24T11:59:20.819Z,24.89
2019-02-24T12:00:20.848Z,25.16
2019-02-24T12:01:20.838Z,25.46
2019-02-24T12:02:20.784Z,25.33
2019-02-24T12:03:20.940Z,24.86
2019-02-24T12:04:20.763Z,24.81
2019-02-24T12:05:20.761Z,25.03
2019-02-24T12:06:20.829Z,25.01
2019-02-24T12:07:20.704Z,24.84
2019-02-24T12:08:20.706Z,24.61
2019-02-24T12:09:20.701Z,24.91
2019-02-24T12:10:20.701Z,25.58
2019-02-24T12:11:20.683Z,26.18
2019-02-24T12:12:20.790Z,26.33
2019-02-24T12:13:20.794Z,26.53
2019-02-24T12:14:20.643Z,26.51
2019-02-24T12:15:20.766Z,26.56
2019-02-24T12:16:20.612Z,26.62
2019-02-24T12:17:20.635Z,26.75
2019-02-24T12:18:20.694Z,27.18
2019-02-24T12:19:20.765Z,27.26
2019-02-24T12:20:20.588Z,27.35
2019-02-24T12:21:20.565Z,27.37
2019-02-24T12:22:20.542Z,27.71
2019-02-24T12:23:20.561Z,27.68
2019-02-24T12:24:20.566Z,27.52
2019-02-24T12:25:20.652Z,27.35
2019-02-24T12:26:20.512Z,26.93
2019-02-24T12:27:20.502Z,26.77
2019-02-24T12:28:20.478Z,26.62
2019-02-24T12:29:20.494Z,26.85
2019-02-24T12:30:20.482Z,26.62
2019-02-24T12:31:20.942Z,26.13
2019-02-24T12:32:20.462Z,25.53
2019-02-24T12:33:20.550Z,25.33
2019-02-24T12:34:20.414Z,25.58
2019-02-24T12:35:20.476Z,25.83
2019-02-24T12:36:20.399Z,26.22
2019-02-24T12:37:20.474Z,26.41
2019-02-24T12:38:20.376Z,26.53
2019-02-24T12:39:20.586Z,26.51
2019-02-24T12:40:20.453Z,26.33
2019-02-24T12:41:20.351Z,26.16
2019-02-24T12:42:20.371Z,26.15
2019-02-24T12:43:20.370Z,25.44
2019-02-24T12:44:20.319Z,25.40
2019-02-24T12:45:20.311Z,25.54
2019-02-24T12:46:20.452Z,25.88
2019-02-24T12:47:20.287Z,26.18
2019-02-24T12:48:20.410Z,25.85
2019-02-24T12:49:20.368Z,25.83
2019-02-24T12:50:20.260Z,25.99
2019-02-24T12:51:20.365Z,26.13
2019-02-24T12:52:20.785Z,26.09
2019-02-24T12:53:20.211Z,26.28
2019-02-24T12:54:20.212Z,26.16
2019-02-24T12:55:20.243Z,26.26
2019-02-24T12:56:20.199Z,26.40
2019-02-24T12:57:20.161Z,26.63
2019-02-24T12:58:20.167Z,26.81
2019-02-24T12:59:20.163Z,26.60
2019-02-24T13:00:20.143Z,26.70
2019-02-24T13:01:20.187Z,26.85
2019-02-24T13:02:20.130Z,26.71
2019-02-24T13:03:24.013Z,26.47
2019-02-24T13:04:20.172Z,26.48
2019-02-24T13:05:20.119Z,26.16
2019-02-24T13:06:20.329Z,25.83
2019-02-24T13:07:20.100Z,25.72